createdAt,value
2019-04-30T00:02:06.474Z,100564.59
2019-04-30T00:04:40.460Z,100563.77
2019-04-30T00:07:15.473Z,100558.14
2019-04-30T00:09:49.279Z,100563.30
2019-04-30T00:12:20.531Z,100561.12
2019-04-30T00:14:54.928Z,100556.53
2019-04-30T00:17:28.223Z,100557.03
2019-04-30T00:20:00.423Z,100561.71
2019-04-30T00:22:34.315Z,100560.03
2019-04-30T00:25:07.268Z,100569.53
2019-04-30T00:27:39.109Z,100566.59
2019-04-30T00:30:11.149Z,100562.47
2019-04-30T00:32:45.599Z,100567.36
2019-04-30T00:35:19.656Z,100554.91
2019-04-30T00:37:51.995Z,100558.94
2019-04-30T00:40:26.698Z,100553.79
2019-04-30T00:43:00.129Z,100555.47
2019-04-30T00:45:32.563Z,100562.23
2019-04-30T00:48:05.990Z,100564.95
2019-04-30T00:50:37.905Z,100560.06
2019-04-30T00:53:12.352Z,100563.89
2019-04-30T00:55:44.924Z,100563.63
2019-04-30T00:58:24.832Z,100554.47
2019-04-30T01:00:55.476Z,100552.06
2019-04-30T01:03:29.000Z,100537.70
2019-04-30T01:06:00.964Z,100541.47
2019-04-30T01:08:33.153Z,100548.03
2019-04-30T01:11:09.377Z,100545.35
2019-04-30T01:13:45.631Z,100544.27
2019-04-30T01:16:13.041Z,100537.50
2019-04-30T01:18:44.809Z,100543.20
2019-04-30T01:21:18.515Z,100562.97
2019-04-30T01:23:54.532Z,100551.32
2019-04-30T01:26:27.761Z,100551.91
2019-04-30T01:29:02.044Z,100543.79
2019-04-30T01:31:37.350Z,100536.76
2019-04-30T01:34:12.346Z,100547.85
2019-04-30T01:36:43.431Z,100560.59
2019-04-30T01:39:14.958Z,100547.59
2019-04-30T01:41:48.638Z,100551.09
2019-04-30T01:44:20.067Z,100563.85
2019-04-30T01:46:51.828Z,100551.12
2019-04-30T01:49:25.743Z,100553.82
2019-04-30T01:51:58.524Z,100575.47
2019-04-30T01:54:31.083Z,100562.20
2019-04-30T01:57:10.728Z,100570.62
2019-04-30T02:00:00.650Z,100564.91
2019-04-30T02:02:39.443Z,100567.59
2019-04-30T02:05:12.199Z,100553.77
2019-04-30T02:07:46.007Z,100559.18
2019-04-30T02:10:18.594Z,100552.15
2019-04-30T02:12:50.551Z,100557.03
2019-04-30T02:15:23.232Z,100550.77
2019-04-30T02:17:55.203Z,100547.00
2019-04-30T02:20:28.696Z,100551.85
2019-04-30T02:23:01.297Z,100552.12
2019-04-30T02:25:33.025Z,100549.97
2019-04-30T02:28:05.011Z,100553.47
2019-04-30T02:30:36.880Z,100556.16
2019-04-30T02:33:09.636Z,100549.97
2019-04-30T02:35:43.371Z,100548.06
2019-04-30T02:38:26.294Z,100557.80
2019-04-30T02:40:59.480Z,100563.45
2019-04-30T02:43:34.128Z,100559.36
2019-04-30T02:46:06.093Z,100553.38
2019-04-30T02:48:39.835Z,100555.23
2019-04-30T02:51:12.387Z,100556.30
2019-04-30T02:53:52.715Z,100558.73
2019-04-30T02:56:27.029Z,100550.05
2019-04-30T02:59:03.198Z,100546.52
2019-04-30T03:01:32.904Z,100544.88
2019-04-30T03:04:05.175Z,100542.44
2019-04-30T03:06:36.733Z,100549.96
2019-04-30T03:09:10.349Z,100541.64
2019-04-30T03:11:42.596Z,100538.17
2019-04-30T03:14:14.594Z,100538.73
2019-04-30T03:16:52.722Z,100540.08
2019-04-30T03:19:31.322Z,100534.91
2019-04-30T03:22:05.029Z,100535.30
2019-04-30T03:24:39.797Z,100538.05
2019-04-30T03:27:10.068Z,100540.98
2019-04-30T03:29:43.308Z,100545.25
2019-04-30T03:32:15.052Z,100557.33
2019-04-30T03:34:51.109Z,100561.03
2019-04-30T03:37:20.161Z,100563.11
2019-04-30T03:39:52.380Z,100564.97
2019-04-30T03:42:24.557Z,100563.51
2019-04-30T03:44:59.089Z,100561.52
2019-04-30T03:47:30.309Z,100561.69
2019-04-30T03:50:02.091Z,100564.02
2019-04-30T03:52:34.162Z,100565.83
2019-04-30T03:55:09.220Z,100562.75
2019-04-30T03:57:41.038Z,100563.69
2019-04-30T04:00:15.172Z,100565.80
2019-04-30T04:02:47.057Z,100564.17
2019-04-30T04:05:20.624Z,100562.22
2019-04-30T04:08:10.637Z,100565.78
2019-04-30T04:10:52.597Z,100569.13
2019-04-30T04:13:21.122Z,100571.19
2019-04-30T04:15:52.879Z,100572.72
2019-04-30T04:18:24.529Z,100578.03
2019-04-30T04:21:08.740Z,100575.23
2019-04-30T04:23:32.820Z,100563.98
2019-04-30T04:26:03.482Z,100570.46
2019-04-30T04:28:35.451Z,100570.89
2019-04-30T04:31:09.562Z,100572.95
2019-04-30T04:33:40.934Z,100568.78
2019-04-30T04:36:13.020Z,100567.13
2019-04-30T04:38:44.949Z,100565.06
2019-04-30T04:41:16.620Z,100559.03
2019-04-30T04:43:50.492Z,100558.34
2019-04-30T04:46:23.008Z,100557.90
2019-04-30T04:48:55.076Z,100552.78
2019-04-30T04:51:36.712Z,100555.48
2019-04-30T04:54:03.356Z,100559.52
2019-04-30T04:56:33.836Z,100571.38
2019-04-30T04:59:05.905Z,100564.73
2019-04-30T05:01:38.751Z,100557.58
2019-04-30T05:04:11.847Z,100566.73
2019-04-30T05:06:43.751Z,100562.00
2019-04-30T05:09:15.921Z,100555.91
2019-04-30T05:11:48.717Z,100550.03
2019-04-30T05:14:21.087Z,100554.69
2019-04-30T05:16:52.830Z,100556.64
2019-04-30T05:19:25.823Z,100552.75
2019-04-30T05:21:59.682Z,100551.50
2019-04-30T05:24:31.612Z,100554.83
2019-04-30T05:27:03.692Z,100550.44
2019-04-30T05:29:35.223Z,100553.95
2019-04-30T05:32:09.150Z,100552.76
2019-04-30T05:34:40.809Z,100559.26
2019-04-30T05:37:12.775Z,100551.58
2019-04-30T05:39:44.638Z,100559.16
2019-04-30T05:42:16.445Z,100555.71
2019-04-30T05:44:49.684Z,100564.22
2019-04-30T05:47:21.543Z,100557.74
2019-04-30T05:49:53.631Z,100565.27
2019-04-30T05:52:25.597Z,100559.23
2019-04-30T05:54:58.503Z,100558.86
2019-04-30T05:57:30.971Z,100570.41
2019-04-30T06:00:03.158Z,100568.98
2019-04-30T06:02:35.315Z,100561.61
2019-04-30T06:05:08.710Z,100563.44
2019-04-30T06:07:40.755Z,100566.02
2019-04-30T06:10:14.617Z,100574.25
2019-04-30T06:12:49.333Z,100582.54
2019-04-30T06:15:29.136Z,100575.59
2019-04-30T06:18:10.736Z,100576.42
2019-04-30T06:20:35.859Z,100577.20
2019-04-30T06:23:09.123Z,100579.15
2019-04-30T06:25:56.266Z,100576.28
2019-04-30T06:28:15.326Z,100574.86
2019-04-30T06:30:49.280Z,100577.00
2019-04-30T06:33:21.533Z,100580.38
2019-04-30T06:35:53.783Z,100577.62
2019-04-30T06:38:25.873Z,100576.20
2019-04-30T06:40:58.873Z,100570.36
2019-04-30T06:43:31.343Z,100569.27
2019-04-30T06:46:03.906Z,100572.23
2019-04-30T06:48:36.711Z,100569.52
2019-04-30T06:51:09.066Z,100570.34
2019-04-30T06:53:41.027Z,100568.80
2019-04-30T06:56:13.013Z,100566.07
2019-04-30T06:58:45.184Z,100566.66
2019-04-30T07:01:18.955Z,100566.77
2019-04-30T07:03:50.747Z,100565.02
2019-04-30T07:06:29.596Z,100567.77
2019-04-30T07:09:00.708Z,100566.16
2019-04-30T07:11:34.720Z,100560.31
2019-04-30T07:14:06.915Z,100563.26
2019-04-30T07:16:39.744Z,100559.84
2019-04-30T07:19:11.662Z,100564.18
2019-04-30T07:21:45.318Z,100559.77
2019-04-30T07:24:20.800Z,100559.77
2019-04-30T07:26:54.740Z,100557.73
2019-04-30T07:29:25.068Z,100564.02
2019-04-30T07:31:59.130Z,100561.52
2019-04-30T07:34:36.544Z,100558.79
2019-04-30T07:37:16.358Z,100562.78
2019-04-30T07:39:39.065Z,100566.34
2019-04-30T07:42:10.705Z,100566.22
2019-04-30T07:44:42.682Z,100564.53
2019-04-30T07:47:14.435Z,100562.25
2019-04-30T07:49:52.128Z,100573.20
2019-04-30T07:52:21.443Z,100569.08
2019-04-30T07:54:53.008Z,100567.69
2019-04-30T07:57:24.853Z,100569.97
2019-04-30T07:59:56.678Z,100565.63
2019-04-30T08:02:36.941Z,100569.02
2019-04-30T08:05:15.291Z,100564.66
2019-04-30T08:07:48.985Z,100561.69
2019-04-30T08:10:20.161Z,100566.20
2019-04-30T08:12:52.328Z,100565.29
2019-04-30T08:15:24.405Z,100565.13
2019-04-30T08:18:03.558Z,100569.36
2019-04-30T08:20:29.683Z,100567.98
2019-04-30T08:23:13.346Z,100572.77
2019-04-30T08:25:35.253Z,100572.95
2019-04-30T08:28:08.960Z,100567.64
2019-04-30T08:30:41.919Z,100563.23
2019-04-30T08:33:13.990Z,100568.59
2019-04-30T08:35:47.386Z,100566.13
2019-04-30T08:38:19.271Z,100564.62
2019-04-30T08:40:57.668Z,100561.58
2019-04-30T08:43:24.720Z,100565.69
2019-04-30T08:45:56.293Z,100556.87
2019-04-30T08:48:41.940Z,100557.35
2019-04-30T08:51:01.645Z,100568.14
2019-04-30T08:53:34.398Z,100560.41
2019-04-30T08:56:06.307Z,100557.77
2019-04-30T08:58:39.105Z,100558.95
2019-04-30T09:01:10.953Z,100557.69
2019-04-30T09:03:42.826Z,100554.75
2019-04-30T09:06:16.176Z,100550.66
2019-04-30T09:08:49.072Z,100552.30
2019-04-30T09:11:27.292Z,100555.63
2019-04-30T09:13:54.275Z,100557.16
2019-04-30T09:16:26.349Z,100554.87
2019-04-30T09:18:59.736Z,100551.12
2019-04-30T09:21:31.380Z,100549.86
2019-04-30T09:24:03.104Z,100556.23
2019-04-30T09:26:34.921Z,100547.41
2019-04-30T09:29:06.904Z,100552.77
2019-04-30T09:31:40.961Z,100549.31
2019-04-30T09:34:17.077Z,100537.21
2019-04-30T09:36:45.430Z,100540.98
2019-04-30T09:39:19.502Z,100537.17
2019-04-30T09:41:50.613Z,100543.39
2019-04-30T09:44:22.475Z,100544.00
2019-04-30T09:46:54.540Z,100536.23
2019-04-30T09:49:26.299Z,100529.34
2019-04-30T09:51:59.418Z,100532.80
2019-04-30T09:54:31.882Z,100531.97
2019-04-30T09:57:04.746Z,100528.24
2019-04-30T09:59:36.603Z,100528.92
2019-04-30T10:02:09.309Z,100522.78
2019-04-30T10:04:41.409Z,100525.31
2019-04-30T10:07:13.542Z,100529.11
2019-04-30T10:09:45.205Z,100527.80
2019-04-30T10:12:19.380Z,100525.42
2019-04-30T10:14:50.076Z,100524.42
2019-04-30T10:17:25.995Z,100522.89
2019-04-30T10:19:57.887Z,100517.71
2019-04-30T10:22:29.826Z,100522.38
2019-04-30T10:25:01.714Z,100520.56
2019-04-30T10:27:34.380Z,100519.88
2019-04-30T10:30:09.339Z,100523.53
2019-04-30T10:32:40.989Z,100522.84
2019-04-30T10:35:12.952Z,100513.16
2019-04-30T10:37:44.898Z,100517.41
2019-04-30T10:40:20.063Z,100516.80
2019-04-30T10:42:50.188Z,100518.44
2019-04-30T10:45:22.195Z,100514.77
2019-04-30T10:47:53.897Z,100511.63
2019-04-30T10:50:26.269Z,100513.77
2019-04-30T10:52:59.119Z,100515.68
2019-04-30T10:55:31.116Z,100521.09
2019-04-30T10:58:03.002Z,100521.35
2019-04-30T11:00:40.135Z,100516.55
2019-04-30T11:03:20.016Z,100513.03
2019-04-30T11:05:45.488Z,100513.94
2019-04-30T11:08:17.416Z,100512.88
2019-04-30T11:10:49.478Z,100503.13
2019-04-30T11:13:21.230Z,100509.27
2019-04-30T11:15:52.787Z,100503.81
2019-04-30T11:18:25.059Z,100503.67
2019-04-30T11:20:57.158Z,100496.89
2019-04-30T11:23:29.758Z,100492.50
2019-04-30T11:26:02.726Z,100492.89
2019-04-30T11:28:35.042Z,100490.04
2019-04-30T11:31:08.698Z,100490.92
2019-04-30T11:33:40.671Z,100492.67
2019-04-30T11:36:12.525Z,100485.86
2019-04-30T11:38:44.373Z,100482.36
2019-04-30T11:41:29.805Z,100477.25
2019-04-30T11:43:50.055Z,100481.25
2019-04-30T11:46:28.703Z,100472.75
2019-04-30T11:49:00.520Z,100471.56
2019-04-30T11:51:32.373Z,100486.37
2019-04-30T11:54:04.663Z,100471.11
2019-04-30T11:56:38.367Z,100476.27
2019-04-30T11:59:09.640Z,100480.02
2019-04-30T12:01:42.512Z,100481.08
2019-04-30T12:04:14.186Z,100487.91
2019-04-30T12:06:46.238Z,100485.44
2019-04-30T12:09:35.941Z,100473.49
2019-04-30T12:12:09.143Z,100472.25
2019-04-30T12:14:40.901Z,100473.03
2019-04-30T12:17:12.863Z,100470.60
2019-04-30T12:19:44.931Z,100465.73
2019-04-30T12:22:20.041Z,100466.19
2019-04-30T12:25:02.269Z,100476.91
2019-04-30T12:27:24.521Z,100476.08
2019-04-30T12:29:56.257Z,100486.17
2019-04-30T12:32:29.872Z,100476.30
2019-04-30T12:35:01.644Z,100476.30
2019-04-30T12:37:33.973Z,100479.55
2019-04-30T12:40:10.856Z,100462.54
2019-04-30T12:42:42.544Z,100475.71
2019-04-30T12:45:14.740Z,100473.25
2019-04-30T12:47:48.116Z,100481.13
2019-04-30T12:50:29.204Z,100479.30
2019-04-30T12:53:02.915Z,100468.81
2019-04-30T12:55:42.463Z,100478.91
2019-04-30T12:58:14.529Z,100480.50
2019-04-30T13:00:46.394Z,100472.73
2019-04-30T13:03:18.464Z,100479.67
2019-04-30T13:05:51.241Z,100479.67
2019-04-30T13:08:24.242Z,100475.62
2019-04-30T13:10:56.863Z,100475.95
2019-04-30T13:13:31.696Z,100479.08
2019-04-30T13:16:02.285Z,100482.20
2019-04-30T13:18:34.360Z,100484.53
2019-04-30T13:21:06.219Z,100480.34
2019-04-30T13:23:38.392Z,100486.74
2019-04-30T13:26:10.137Z,100480.65
2019-04-30T13:28:58.509Z,100483.14
2019-04-30T13:31:30.266Z,100483.58
2019-04-30T13:34:03.858Z,100484.49
2019-04-30T13:36:35.714Z,100484.42
2019-04-30T13:39:15.991Z,100481.07
2019-04-30T13:42:15.831Z,100485.16
2019-04-30T13:44:41.517Z,100482.66
2019-04-30T13:47:13.296Z,100481.55
2019-04-30T13:49:45.037Z,100479.13
2019-04-30T13:52:16.822Z,100472.38
2019-04-30T13:54:48.782Z,100467.19
2019-04-30T13:57:20.538Z,100467.89
2019-04-30T13:59:52.504Z,100469.34
2019-04-30T14:02:24.316Z,100470.95
2019-04-30T14:05:12.909Z,100476.07
2019-04-30T14:08:02.500Z,100481.77
2019-04-30T14:10:36.210Z,100476.34
2019-04-30T14:13:08.382Z,100474.23
2019-04-30T14:15:41.353Z,100479.88
2019-04-30T14:18:13.649Z,100477.42
2019-04-30T14:20:45.697Z,100491.66
2019-04-30T14:23:18.629Z,100485.17
2019-04-30T14:25:56.794Z,100483.23
2019-04-30T14:28:23.773Z,100483.92
2019-04-30T14:30:55.529Z,100484.01
2019-04-30T14:33:29.388Z,100488.69
2019-04-30T14:36:01.202Z,100491.02
2019-04-30T14:38:33.170Z,100472.95
2019-04-30T14:41:06.224Z,100473.11
2019-04-30T14:43:42.311Z,100469.18
2019-04-30T14:46:31.149Z,100474.87
2019-04-30T14:49:14.771Z,100471.98
2019-04-30T14:51:44.645Z,100476.36
2019-04-30T14:54:21.116Z,100478.63
2019-04-30T14:57:00.554Z,100488.39
2019-04-30T14:59:50.630Z,100494.94
2019-04-30T15:02:26.997Z,100505.75
2019-04-30T15:04:58.865Z,100497.02
2019-04-30T15:07:30.934Z,100501.73
2019-04-30T15:10:05.205Z,100503.67
2019-04-30T15:12:37.029Z,100502.42
2019-04-30T15:15:09.383Z,100509.16
2019-04-30T15:17:41.320Z,100506.53
2019-04-30T15:20:13.216Z,100509.70
2019-04-30T15:22:52.775Z,100508.91
2019-04-30T15:25:24.639Z,100509.47
2019-04-30T15:27:58.961Z,100509.00
2019-04-30T15:30:30.722Z,100504.42
2019-04-30T15:33:20.507Z,100511.13
2019-04-30T15:35:52.458Z,100503.92
2019-04-30T15:38:25.757Z,100497.32
2019-04-30T15:40:57.738Z,100492.26
2019-04-30T15:43:29.909Z,100497.99
2019-04-30T15:46:01.673Z,100496.38
2019-04-30T15:48:33.841Z,100503.51
2019-04-30T15:51:05.708Z,100509.31
2019-04-30T15:53:37.551Z,100511.89
2019-04-30T15:56:09.210Z,100509.66
2019-04-30T15:58:45.903Z,100519.48
2019-04-30T16:01:19.239Z,100518.07
2019-04-30T16:03:52.601Z,100509.25
2019-04-30T16:06:24.470Z,100515.56
2019-04-30T16:09:12.712Z,100518.98
2019-04-30T16:11:46.511Z,100535.08
2019-04-30T16:14:29.506Z,100561.16
2019-04-30T16:17:05.715Z,100584.78
2019-04-30T16:19:37.590Z,100606.24
2019-04-30T16:22:09.338Z,100607.75
2019-04-30T16:24:40.984Z,100604.41
2019-04-30T16:27:13.174Z,100599.23
2019-04-30T16:29:44.893Z,100600.73
2019-04-30T16:32:16.902Z,100585.89
2019-04-30T16:34:49.815Z,100590.16
2019-04-30T16:37:21.632Z,100586.53
2019-04-30T16:39:53.495Z,100575.05
2019-04-30T16:42:25.278Z,100566.67
2019-04-30T16:45:00.562Z,100569.66
2019-04-30T16:47:30.642Z,100562.17
2019-04-30T16:50:02.638Z,100552.63
2019-04-30T16:52:34.679Z,100550.92
2019-04-30T16:55:07.857Z,100548.33
2019-04-30T16:57:40.041Z,100537.25
2019-04-30T17:00:13.809Z,100535.95
2019-04-30T17:02:46.929Z,100535.55
2019-04-30T17:05:39.485Z,100532.95
2019-04-30T17:08:15.670Z,100531.72
2019-04-30T17:10:58.181Z,100520.08
2019-04-30T17:13:31.783Z,100509.27
2019-04-30T17:16:12.603Z,100493.58
2019-04-30T17:18:44.307Z,100480.30
2019-04-30T17:21:16.187Z,100485.73
2019-04-30T17:23:50.593Z,100500.69
2019-04-30T17:26:21.652Z,100508.37
2019-04-30T17:28:56.381Z,100509.89
2019-04-30T17:31:28.351Z,100510.14
2019-04-30T17:34:00.091Z,100503.09
2019-04-30T17:36:32.200Z,100493.33
2019-04-30T17:39:05.376Z,100498.48
2019-04-30T17:41:37.765Z,100503.98
2019-04-30T17:44:09.408Z,100507.61
2019-04-30T17:46:41.348Z,100508.50
2019-04-30T17:49:13.462Z,100501.19
2019-04-30T17:51:45.101Z,100499.73
2019-04-30T17:54:18.395Z,100492.80
2019-04-30T17:56:50.463Z,100493.02
2019-04-30T17:59:22.185Z,100501.59
2019-04-30T18:01:59.599Z,100499.61
2019-04-30T18:04:31.790Z,100504.69
2019-04-30T18:07:03.575Z,100509.23
2019-04-30T18:09:35.519Z,100515.71
2019-04-30T18:12:09.428Z,100527.30
2019-04-30T18:14:41.292Z,100540.45
2019-04-30T18:17:13.387Z,100552.52
2019-04-30T18:19:49.790Z,100566.14
2019-04-30T18:22:29.359Z,100572.39
2019-04-30T18:25:10.463Z,100561.89
2019-04-30T18:27:46.291Z,100565.22
2019-04-30T18:30:21.121Z,100567.11
2019-04-30T18:32:52.729Z,100574.20
2019-04-30T18:35:24.470Z,100581.30
2019-04-30T18:37:58.462Z,100580.20
2019-04-30T18:40:29.818Z,100582.00
2019-04-30T18:43:01.803Z,100587.52
2019-04-30T18:45:33.673Z,100590.59
2019-04-30T18:48:05.883Z,100595.23
2019-04-30T18:50:38.098Z,100596.63
2019-04-30T18:53:23.643Z,100597.20
2019-04-30T18:55:55.868Z,100595.31
2019-04-30T18:58:39.334Z,100588.27
2019-04-30T19:01:00.809Z,100596.14
2019-04-30T19:03:33.705Z,100590.20
2019-04-30T19:06:09.859Z,100585.38
2019-04-30T19:08:44.780Z,100591.85
2019-04-30T19:11:32.702Z,100587.25
2019-04-30T19:14:21.505Z,100585.08
2019-04-30T19:16:59.523Z,100586.13
2019-04-30T19:19:40.220Z,100586.13
2019-04-30T19:22:11.858Z,100573.39
2019-04-30T19:24:55.587Z,100578.55
2019-04-30T19:27:18.635Z,100573.69
2019-04-30T19:29:51.781Z,100572.33
2019-04-30T19:32:23.419Z,100575.31
2019-04-30T19:34:55.404Z,100577.50
2019-04-30T19:37:27.209Z,100570.72
2019-04-30T19:39:59.070Z,100566.17
2019-04-30T19:42:30.944Z,100568.95
2019-04-30T19:45:09.553Z,100568.73
2019-04-30T19:47:36.206Z,100564.62
2019-04-30T19:50:09.386Z,100554.66
2019-04-30T19:52:41.246Z,100551.76
2019-04-30T19:55:13.222Z,100553.45
2019-04-30T19:57:45.050Z,100543.26
2019-04-30T20:00:17.458Z,100542.25
2019-04-30T20:02:49.089Z,100546.09
2019-04-30T20:05:20.680Z,100542.94
2019-04-30T20:07:52.445Z,100541.92
2019-04-30T20:10:24.299Z,100540.30
2019-04-30T20:12:58.652Z,100535.74
2019-04-30T20:15:29.921Z,100532.20
2019-04-30T20:18:03.265Z,100532.77
2019-04-30T20:20:35.336Z,100532.77
2019-04-30T20:23:07.000Z,100536.05
2019-04-30T20:25:38.652Z,100534.12
2019-04-30T20:28:12.205Z,100528.19
2019-04-30T20:30:43.922Z,100531.23
2019-04-30T20:33:15.976Z,100529.65
2019-04-30T20:35:48.905Z,100521.26
2019-04-30T20:38:34.449Z,100518.81
2019-04-30T20:41:09.215Z,100519.11
2019-04-30T20:43:40.877Z,100514.74
2019-04-30T20:46:13.026Z,100516.14
2019-04-30T20:48:49.158Z,100518.89
2019-04-30T20:51:20.940Z,100517.80
2019-04-30T20:53:52.579Z,100513.69
2019-04-30T20:56:24.483Z,100519.11
2019-04-30T20:59:01.173Z,100514.22
2019-04-30T21:01:30.114Z,100512.11
2019-04-30T21:04:02.004Z,100509.96
2019-04-30T21:06:33.859Z,100512.16
2019-04-30T21:09:06.759Z,100510.30
2019-04-30T21:11:40.459Z,100504.33
2019-04-30T21:14:12.648Z,100506.54
2019-04-30T21:16:44.533Z,100504.92
2019-04-30T21:19:16.567Z,100505.19
2019-04-30T21:21:49.708Z,100505.72
2019-04-30T21:24:21.611Z,100498.98
2019-04-30T21:26:53.396Z,100503.61
2019-04-30T21:29:25.029Z,100504.10
2019-04-30T21:32:01.291Z,100503.61
2019-04-30T21:34:39.371Z,100506.09
2019-04-30T21:37:11.199Z,100502.03
2019-04-30T21:39:43.112Z,100488.25
2019-04-30T21:42:15.918Z,100488.03
2019-04-30T21:44:47.824Z,100488.82
2019-04-30T21:47:19.829Z,100479.68
2019-04-30T21:49:51.795Z,100482.16
2019-04-30T21:52:23.473Z,100483.51
2019-04-30T21:54:56.770Z,100483.21
2019-04-30T21:57:28.834Z,100473.95
2019-04-30T22:00:00.494Z,100473.16
2019-04-30T22:02:33.893Z,100469.66
2019-04-30T22:05:07.011Z,100466.69
2019-04-30T22:07:38.853Z,100465.34
2019-04-30T22:10:11.288Z,100465.60
2019-04-30T22:12:42.983Z,100459.92
2019-04-30T22:15:14.921Z,100457.52
2019-04-30T22:17:46.511Z,100453.19
2019-04-30T22:20:19.076Z,100460.52
2019-04-30T22:22:50.744Z,100458.60
2019-04-30T22:25:22.611Z,100460.82
2019-04-30T22:27:54.668Z,100458.95
2019-04-30T22:30:27.425Z,100456.76
2019-04-30T22:32:59.640Z,100459.43
2019-04-30T22:35:33.193Z,100454.20
2019-04-30T22:38:09.805Z,100446.11
2019-04-30T22:40:41.442Z,100456.16
2019-04-30T22:43:14.446Z,100451.04
2019-04-30T22:45:51.128Z,100449.08
2019-04-30T22:48:23.086Z,100452.55
2019-04-30T22:50:54.948Z,100450.89
2019-04-30T22:53:26.696Z,100445.16
2019-04-30T22:55:58.329Z,100444.37
2019-04-30T22:58:30.128Z,100447.69
2019-04-30T23:01:12.870Z,100442.61
2019-04-30T23:03:45.019Z,100437.45
2019-04-30T23:06:16.883Z,100436.67
2019-04-30T23:08:48.748Z,100431.77
2019-04-30T23:11:20.910Z,100430.42
2019-04-30T23:13:52.483Z,100421.98
2019-04-30T23:16:24.443Z,100416.31
2019-04-30T23:18:56.495Z,100409.05
2019-04-30T23:21:28.171Z,100410.94
2019-04-30T23:24:00.032Z,100396.33
2019-04-30T23:26:32.085Z,100391.27
2019-04-30T23:29:04.175Z,100387.76
2019-04-30T23:31:37.344Z,100388.32
2019-04-30T23:34:17.752Z,100389.41
2019-04-30T23:36:42.916Z,100386.66
2019-04-30T23:39:14.797Z,100382.34
2019-04-30T23:41:46.764Z,100378.84
2019-04-30T23:44:18.510Z,100392.16
2019-04-30T23:46:50.591Z,100385.95
2019-04-30T23:49:22.445Z,100372.45
2019-04-30T23:51:54.529Z,100377.87
2019-04-30T23:54:26.308Z,100379.45
2019-04-30T23:56:58.151Z,100372.19
2019-04-30T23:59:30.115Z,100367.61
